Huntsville International Carl T Jones Field
KHSV : now visible

Airfield :











YOU CAN JOIN US ON...

 
LOGIN :

Register | Disclaimer

   EN    FR    IT 

 









Legend :    VFR   Marginal VFR   IFR   Intensive IFR   Very Intensive IFR
Visi :
Ceiling :
>= 8 km
>= 3000ft
5 to 8 km
1000 to 3000 ft
1500m to 5 km
500 to 1000 ft
800 to 1500m
200 to 500 ft
< 800m
< 200 ft
Symbols :   Thunderstorms  Fog  Heavy snow  Heavy precipitations  Wind > 20 kt







- Airport Elevation : 629 ft
- IATA code : HSV


KHSV - Huntsville International Carl T Jones Field

CURRENT METAR :
  • 180540Z 31009KT 10SM -RA BKN013 BKN027 OVC110 07/06 A3001 RMK AO2 P0001 T00720061

EXPIRED METARs :
  • 180525Z 32008KT 10SM -RA SCT015 OVC110 07/06 A2999 RMK AO2 P0001 T00720061
  • 180453Z 29005KT 10SM -RA SCT016 BKN025 OVC090 08/07 A2999 RMK AO2 SLP155 P0011 T00780067
  • 180353Z 29006KT 7SM -RA FEW015 SCT045 OVC070 08/07 A2997 RMK AO2 SLP147 P0005 T00830072
  • 180340Z 28004KT 7SM -RA FEW009 BKN060 OVC075 09/08 A2997 RMK AO2 P0003 T00890078
  • 180253Z 32006KT 5SM RA BR FEW010 BKN055 OVC075 09/08 A2995 RMK AO2 SLP139 P0009 60037 T00890078 51018

TAF KHSV
Valid from the 18 at 06:00 until the 19 at 06:00 UTC


180520Z 1806/1906 32009KT P6SM VCSH SCT008 OVC014
FM180800 33007KT P6SM OVC020
FM181400 36010G15KT P6SM SCT030 BKN200
FM182100 03010KT P6SM BKN180
KZME FIR / North America



MET'MAP, your aeronautical weather chart ! - Copyright ORBIFLY December 2007 - Disclaimer

ORBIFLY MET'MAP TEAM :

Programming & Development : Alexandra Zaïnal
Concept & Development : Baudouin d'Aumeries
Co-Development & Prog : Marc-Olivier Méhu
Technical & hardware support : Manuel Goepfert

Contact : metmap@orbifly.com




SOURCES & CREDITS :

   NOAA       Earth
Advisory